This is the latest recevied weather packets stored in our database for station/object W4CKA. If no packets are shown the sender has not sent any weather packets the latest 10 day(s).
| Time | Temp. | Humidity | Pressure | Rain* | Wind** | Luminosity | Snow |
|---|---|---|---|---|---|---|---|
| 1787794872 | 21.67° C | 96% | 1058.2 hPa | 0 mm | - | 0 W/m² | - |
| 1787794270 | 21.67° C | 96% | 1058.5 hPa | 0 mm | - | 0 W/m² | - |
| 1787793667 | 22.22° C | 95% | 1058.4 hPa | 0 mm | - | 0 W/m² | - |
| 1787793062 | 22.22° C | 94% | 1058.1 hPa | 0 mm | - | 0 W/m² | - |
| 1787792462 | 22.22° C | 94% | 1058 hPa | 0 mm | - | 0 W/m² | - |
| 1787791858 | 22.78° C | 93% | 1058 hPa | 0 mm | - | 0 W/m² | - |
| 1787791255 | 22.78° C | 93% | 1058 hPa | 0 mm | - | 0 W/m² | - |
| 1787790651 | 22.78° C | 92% | 1057.8 hPa | 0 mm | - | 0 W/m² | - |
| 1787790047 | 23.33° C | 90% | 1057.7 hPa | 0 mm | - | 0 W/m² | - |
| 1787789443 | 23.33° C | 90% | 1057.9 hPa | 0 mm | - | 0 W/m² | - |
| 1787788842 | 23.89° C | 88% | 1057.9 hPa | 0 mm | - | 1 W/m² | - |
| 1787788242 | 23.89° C | 87% | 1058 hPa | 0 mm | - | 5 W/m² | - |
| 1787787638 | 23.89° C | 86% | 1057.7 hPa | 0 mm | - | 7 W/m² | - |
| 1787787037 | 24.44° C | 84% | 1057.5 hPa | 0 mm | - | 15 W/m² | - |
| 1787786438 | 25° C | 81% | 1057.6 hPa | 0 mm | - | 23 W/m² | - |
| 1787785835 | 26.11° C | 79% | 1057.7 hPa | 0 mm | - | 31 W/m² | - |
| 1787785230 | 26.11° C | 79% | 1058 hPa | 0 mm | - | 45 W/m² | - |
| 1787784629 | 26.11° C | 76% | 1057.7 hPa | 0 mm | - | 57 W/m² | - |
| 1787784030 | 26.11° C | 76% | 1057.6 hPa | 0 mm | - | 51 W/m² | - |
| 1787783425 | 25.56° C | 81% | 1057.7 hPa | 0 mm | - | 61 W/m² | - |
| 1787782821 | 25.56° C | 82% | 1057.6 hPa | 0 mm | - | 71 W/m² | - |
| 1787782222 | 26.11° C | 82% | 1057.3 hPa | 0 mm | - | 84 W/m² | - |
| 1787781618 | 26.11° C | 80% | 1057.5 hPa | 0 mm | - | 98 W/m² | - |
| 1787781014 | 26.67° C | 78% | 1057.4 hPa | 0 mm | - | 110 W/m² | - |
| 1787780415 | 26.67° C | 77% | 1057.3 hPa | 0 mm | - | 125 W/m² | - |
* Rain latest hour (hover to see other rain measurements)
** Current wind speed in m/s (hover to see current wind gust speed)